createdAt,value
2018-03-17T00:00:58.394Z,82.77
2018-03-17T00:03:25.840Z,82.38
2018-03-17T00:05:53.332Z,82.86
2018-03-17T00:08:20.804Z,82.51
2018-03-17T00:10:48.286Z,82.27
2018-03-17T00:13:15.788Z,82.12
2018-03-17T00:15:43.346Z,81.91
2018-03-17T00:18:10.811Z,82.40
2018-03-17T00:20:38.264Z,82.44
2018-03-17T00:23:05.793Z,82.18
2018-03-17T00:25:33.290Z,82.52
2018-03-17T00:28:00.747Z,83.26
2018-03-17T00:30:28.348Z,83.19
2018-03-17T00:32:55.858Z,83.24
2018-03-17T00:35:23.358Z,83.36
2018-03-17T00:37:50.843Z,83.85
2018-03-17T00:40:18.305Z,84.33
2018-03-17T00:42:45.790Z,84.70
2018-03-17T00:45:13.299Z,84.51
2018-03-17T00:47:40.781Z,84.64
2018-03-17T00:50:08.377Z,84.57
2018-03-17T00:52:35.837Z,84.38
2018-03-17T00:55:03.323Z,84.23
2018-03-17T00:57:30.879Z,84.67
2018-03-17T00:59:58.307Z,84.49
2018-03-17T01:02:25.791Z,83.95
2018-03-17T01:04:53.229Z,83.99
2018-03-17T01:07:20.731Z,84.11
2018-03-17T01:09:48.202Z,83.87
2018-03-17T01:12:15.701Z,83.68
2018-03-17T01:14:43.185Z,83.69
2018-03-17T01:17:10.667Z,83.64
2018-03-17T01:19:38.163Z,83.83
2018-03-17T01:22:06.189Z,83.32
2018-03-17T01:24:33.649Z,83.53
2018-03-17T01:27:01.168Z,83.51
2018-03-17T01:29:28.635Z,84.25
2018-03-17T01:31:56.087Z,84.08
2018-03-17T01:34:23.557Z,83.25
2018-03-17T01:36:51.041Z,83.46
2018-03-17T01:39:18.513Z,83.05
2018-03-17T01:41:45.981Z,83.63
2018-03-17T01:44:13.433Z,83.97
2018-03-17T01:46:40.875Z,83.50
2018-03-17T01:49:08.897Z,83.49
2018-03-17T01:51:37.201Z,83.26
2018-03-17T01:54:16.415Z,83.35
2018-03-17T01:56:43.881Z,83.30
2018-03-17T01:59:14.087Z,83.49
2018-03-17T02:01:41.543Z,83.99
2018-03-17T02:07:01.801Z,84.06
2018-03-17T02:09:29.282Z,83.44
2018-03-17T02:11:56.729Z,83.12
2018-03-17T02:14:24.230Z,82.73
2018-03-17T02:16:51.734Z,82.83
2018-03-17T02:19:19.187Z,83.18
2018-03-17T02:21:46.663Z,83.40
2018-03-17T02:24:14.252Z,83.48
2018-03-17T02:26:42.604Z,82.68
2018-03-17T02:29:10.060Z,82.67
2018-03-17T02:31:37.515Z,82.67
2018-03-17T02:34:05.050Z,81.84
2018-03-17T02:36:32.519Z,82.88
2018-03-17T02:38:59.998Z,82.84
2018-03-17T02:41:27.482Z,82.88
2018-03-17T02:43:54.939Z,82.23
2018-03-17T02:46:22.428Z,82.70
2018-03-17T02:48:49.925Z,83.56
2018-03-17T02:51:17.443Z,82.96
2018-03-17T02:53:44.915Z,81.87
2018-03-17T02:56:12.408Z,82.17
2018-03-17T02:58:39.918Z,82.14
2018-03-17T03:01:07.387Z,81.97
2018-03-17T03:03:34.839Z,81.80
2018-03-17T03:06:02.356Z,81.92
2018-03-17T03:08:29.804Z,81.76
2018-03-17T03:10:57.275Z,81.92
2018-03-17T03:13:24.701Z,81.96
2018-03-17T03:15:52.239Z,81.95
2018-03-17T03:18:19.815Z,82.19
2018-03-17T03:20:47.263Z,82.05
2018-03-17T03:23:15.044Z,82.05
2018-03-17T03:25:42.525Z,82.84
2018-03-17T03:28:09.978Z,82.83
2018-03-17T03:30:37.459Z,83.63
2018-03-17T03:33:04.959Z,83.49
2018-03-17T03:35:32.415Z,83.77
2018-03-17T03:37:59.905Z,83.45
2018-03-17T03:40:27.415Z,83.00
2018-03-17T03:42:54.859Z,82.87
2018-03-17T03:45:22.391Z,82.86
2018-03-17T03:47:49.881Z,82.75
2018-03-17T03:50:17.338Z,82.27
2018-03-17T03:52:44.743Z,82.96
2018-03-17T03:55:12.247Z,82.59
2018-03-17T03:57:39.675Z,82.62
2018-03-17T04:00:07.107Z,82.21
2018-03-17T04:02:34.637Z,82.08
2018-03-17T04:05:02.075Z,81.93
2018-03-17T04:07:29.531Z,82.60
2018-03-17T04:09:56.955Z,81.90
2018-03-17T04:12:24.420Z,81.77
2018-03-17T04:14:51.846Z,81.12
2018-03-17T04:17:19.305Z,81.37
2018-03-17T04:19:46.737Z,81.67
2018-03-17T04:22:14.189Z,81.74
2018-03-17T04:24:41.629Z,82.45
2018-03-17T04:27:09.085Z,82.69
2018-03-17T04:29:36.539Z,83.41
2018-03-17T04:32:04.037Z,82.36
2018-03-17T04:34:31.492Z,82.33
2018-03-17T04:36:58.963Z,82.18
2018-03-17T04:39:26.430Z,81.80
2018-03-17T04:41:53.928Z,82.04
2018-03-17T04:44:21.387Z,82.39
2018-03-17T04:46:48.846Z,82.25
2018-03-17T04:49:16.415Z,82.53
2018-03-17T04:51:43.774Z,83.54
2018-03-17T04:54:25.532Z,83.25
2018-03-17T04:56:52.963Z,82.95
2018-03-17T04:59:20.478Z,82.85
2018-03-17T05:01:47.926Z,82.86
2018-03-17T05:04:15.387Z,83.11
2018-03-17T05:06:42.843Z,83.15
2018-03-17T05:09:10.295Z,82.92
2018-03-17T05:11:37.776Z,82.16
2018-03-17T05:14:05.227Z,82.55
2018-03-17T05:16:32.668Z,83.50
2018-03-17T05:19:00.175Z,83.70
2018-03-17T05:21:31.986Z,82.94
2018-03-17T05:23:59.472Z,82.90
2018-03-17T05:26:26.922Z,83.00
2018-03-17T05:28:54.356Z,83.04
2018-03-17T05:31:21.814Z,82.85
2018-03-17T05:33:49.261Z,82.80
2018-03-17T05:36:17.443Z,83.14
2018-03-17T05:38:44.899Z,83.41
2018-03-17T05:41:12.325Z,82.75
2018-03-17T05:43:39.830Z,82.78
2018-03-17T05:46:07.280Z,82.65
2018-03-17T05:48:34.732Z,82.47
2018-03-17T05:51:02.204Z,82.60
2018-03-17T05:53:29.643Z,82.39
2018-03-17T05:55:57.085Z,82.20
2018-03-17T05:58:24.550Z,82.04
2018-03-17T06:00:52.006Z,81.77
2018-03-17T06:03:19.450Z,82.34
2018-03-17T06:08:39.919Z,81.13
2018-03-17T06:11:07.367Z,80.96
2018-03-17T06:13:34.800Z,80.26
2018-03-17T06:16:02.291Z,80.55
2018-03-17T06:18:29.780Z,81.36
2018-03-17T06:20:57.210Z,80.87
2018-03-17T06:23:24.690Z,80.66
2018-03-17T06:25:52.134Z,80.50
2018-03-17T06:28:19.652Z,80.98
2018-03-17T06:30:47.152Z,80.82
2018-03-17T06:33:14.558Z,80.12
2018-03-17T06:35:42.016Z,80.18
2018-03-17T06:38:09.512Z,80.41
2018-03-17T06:40:36.974Z,80.33
2018-03-17T06:43:04.424Z,80.12
2018-03-17T06:45:31.866Z,80.12
2018-03-17T06:47:59.322Z,80.24
2018-03-17T06:50:26.818Z,80.25
2018-03-17T06:52:54.279Z,80.43
2018-03-17T06:55:21.777Z,80.53
2018-03-17T06:57:49.216Z,80.66
2018-03-17T07:00:16.749Z,81.50
2018-03-17T07:02:44.970Z,80.98
2018-03-17T07:05:12.462Z,81.17
2018-03-17T07:07:39.952Z,80.49
2018-03-17T07:10:07.394Z,80.84
2018-03-17T07:12:34.865Z,80.01
2018-03-17T07:15:02.337Z,80.04
2018-03-17T07:17:29.846Z,79.86
2018-03-17T07:19:57.300Z,79.08
2018-03-17T07:22:24.747Z,79.08
2018-03-17T07:24:52.198Z,78.73
2018-03-17T07:27:19.671Z,78.85
2018-03-17T07:29:47.228Z,79.33
2018-03-17T07:32:14.664Z,79.27
2018-03-17T07:34:42.118Z,79.03
2018-03-17T07:37:09.624Z,79.09
2018-03-17T07:39:37.056Z,79.73
2018-03-17T07:42:04.632Z,79.62
2018-03-17T07:44:32.077Z,79.05
2018-03-17T07:46:59.526Z,78.32
2018-03-17T07:49:27.009Z,78.30
2018-03-17T07:51:54.452Z,78.55
2018-03-17T07:54:21.955Z,77.78
2018-03-17T07:56:49.398Z,78.28
2018-03-17T07:59:16.881Z,77.76
2018-03-17T08:01:44.348Z,78.15
2018-03-17T08:04:11.788Z,76.88
2018-03-17T08:06:39.264Z,77.46
2018-03-17T08:09:07.162Z,76.73
2018-03-17T08:11:34.597Z,76.12
2018-03-17T08:14:02.106Z,75.88
2018-03-17T08:16:29.580Z,76.15
2018-03-17T08:18:57.054Z,76.97
2018-03-17T08:21:24.512Z,76.67
2018-03-17T08:23:51.968Z,76.64
2018-03-17T08:26:19.428Z,75.84
2018-03-17T08:28:46.913Z,75.90
2018-03-17T08:31:15.332Z,75.98
2018-03-17T08:33:42.793Z,75.63
2018-03-17T08:36:10.323Z,75.00
2018-03-17T08:38:37.790Z,75.65
2018-03-17T08:41:05.280Z,75.33
2018-03-17T08:43:32.905Z,74.92
2018-03-17T08:46:00.362Z,73.98
2018-03-17T08:48:27.818Z,74.96
2018-03-17T08:50:55.312Z,75.61
2018-03-17T08:53:22.868Z,75.87
2018-03-17T08:55:50.360Z,74.57
2018-03-17T08:58:17.817Z,74.74
2018-03-17T09:00:45.339Z,74.55
2018-03-17T09:03:12.826Z,74.57
2018-03-17T09:05:40.265Z,74.82
2018-03-17T09:08:07.747Z,74.74
2018-03-17T09:10:35.220Z,74.68
2018-03-17T09:13:02.699Z,73.76
2018-03-17T09:15:30.245Z,73.96
2018-03-17T09:17:57.781Z,74.20
2018-03-17T09:20:25.296Z,74.19
2018-03-17T09:22:52.796Z,74.37
2018-03-17T09:25:20.304Z,73.88
2018-03-17T09:27:47.797Z,73.55
2018-03-17T09:30:15.271Z,73.26
2018-03-17T09:32:42.840Z,73.62
2018-03-17T09:35:10.376Z,73.90
2018-03-17T09:37:37.843Z,73.60
2018-03-17T09:40:05.370Z,73.85
2018-03-17T09:42:32.840Z,73.71
2018-03-17T09:45:00.320Z,73.55
2018-03-17T09:47:27.875Z,74.20
2018-03-17T09:49:55.496Z,74.12
2018-03-17T09:52:23.026Z,74.01
2018-03-17T09:55:00.161Z,73.92
2018-03-17T09:57:27.645Z,74.50
2018-03-17T09:59:55.147Z,73.82
2018-03-17T10:02:22.619Z,74.36
2018-03-17T10:04:55.042Z,73.16
2018-03-17T10:07:22.544Z,73.23
2018-03-17T10:09:50.052Z,73.75
2018-03-17T10:12:17.550Z,73.67
2018-03-17T10:14:45.066Z,72.59
2018-03-17T10:17:12.558Z,72.94
2018-03-17T10:19:40.027Z,72.48
2018-03-17T10:22:08.348Z,72.82
2018-03-17T10:24:35.816Z,73.42
2018-03-17T10:27:03.324Z,73.86
2018-03-17T10:29:30.815Z,73.13
2018-03-17T10:31:58.252Z,73.57
2018-03-17T10:34:25.774Z,73.30
2018-03-17T10:36:53.244Z,73.14
2018-03-17T10:39:20.743Z,73.71
2018-03-17T10:41:48.230Z,74.33
2018-03-17T10:44:15.690Z,74.04
2018-03-17T10:46:43.171Z,74.17
2018-03-17T10:49:10.816Z,73.66
2018-03-17T10:51:38.574Z,73.79
2018-03-17T10:54:06.058Z,73.89
2018-03-17T10:56:33.599Z,73.40
2018-03-17T10:59:01.081Z,74.01
2018-03-17T11:01:28.576Z,73.02
2018-03-17T11:03:56.042Z,72.86
2018-03-17T11:06:23.524Z,72.77
2018-03-17T11:08:51.016Z,71.35
2018-03-17T11:11:19.390Z,72.13
2018-03-17T11:13:46.872Z,72.04
2018-03-17T11:16:14.341Z,71.39
2018-03-17T11:18:41.776Z,71.69
2018-03-17T11:21:09.224Z,70.83
2018-03-17T11:23:36.711Z,70.59
2018-03-17T11:26:04.143Z,70.10
2018-03-17T11:28:31.705Z,69.89
2018-03-17T11:30:59.126Z,70.50
2018-03-17T11:33:26.595Z,70.46
2018-03-17T11:35:54.081Z,71.17
2018-03-17T11:38:21.516Z,70.93
2018-03-17T11:40:48.976Z,71.51
2018-03-17T11:43:16.422Z,70.64
2018-03-17T11:45:43.897Z,70.25
2018-03-17T11:48:11.447Z,71.25
2018-03-17T11:50:38.895Z,71.24
2018-03-17T11:53:06.410Z,71.31
2018-03-17T11:55:33.852Z,71.04
2018-03-17T11:58:01.304Z,71.29
2018-03-17T12:00:28.794Z,71.20
2018-03-17T12:02:56.307Z,71.31
2018-03-17T12:05:23.751Z,71.69
2018-03-17T12:07:51.223Z,71.48
2018-03-17T12:10:18.704Z,71.44
2018-03-17T12:12:46.148Z,71.74
2018-03-17T12:15:13.616Z,71.92
2018-03-17T12:17:41.157Z,71.96
2018-03-17T12:20:08.689Z,71.04
2018-03-17T12:22:36.153Z,71.33
2018-03-17T12:25:13.260Z,71.59
2018-03-17T12:27:40.806Z,71.52
2018-03-17T12:30:08.272Z,72.14
2018-03-17T12:32:35.727Z,72.40
2018-03-17T12:35:03.188Z,72.40
2018-03-17T12:37:30.668Z,72.88
2018-03-17T12:39:59.026Z,73.22
2018-03-17T12:42:26.530Z,73.76
2018-03-17T12:44:54.038Z,74.41
2018-03-17T12:47:21.499Z,74.48
2018-03-17T12:49:49.007Z,74.35
2018-03-17T12:52:16.564Z,74.98
2018-03-17T12:54:44.055Z,74.19
2018-03-17T12:57:11.581Z,74.35
2018-03-17T12:59:39.099Z,75.01
2018-03-17T13:02:06.557Z,75.03
2018-03-17T13:04:34.055Z,75.69
2018-03-17T13:07:01.613Z,75.13
2018-03-17T13:09:29.070Z,75.18
2018-03-17T13:11:56.549Z,74.89
2018-03-17T13:14:24.017Z,74.06
2018-03-17T13:16:51.518Z,74.18
2018-03-17T13:19:30.849Z,74.81
2018-03-17T13:21:58.545Z,74.89
2018-03-17T13:24:31.255Z,74.80
2018-03-17T13:27:10.587Z,74.31
2018-03-17T13:29:38.075Z,75.12
2018-03-17T13:32:06.480Z,74.61
2018-03-17T13:37:39.108Z,74.24
2018-03-17T13:40:18.215Z,74.23
2018-03-17T13:42:45.685Z,74.33
2018-03-17T13:45:13.161Z,74.22
2018-03-17T13:47:40.792Z,74.50
2018-03-17T13:50:08.271Z,74.89
2018-03-17T13:52:35.805Z,75.18
2018-03-17T13:55:05.405Z,74.71
2018-03-17T13:57:32.890Z,74.33
2018-03-17T14:00:00.446Z,75.31
2018-03-17T14:02:27.985Z,74.92
2018-03-17T14:04:55.618Z,75.19
2018-03-17T14:07:23.116Z,75.22
2018-03-17T14:09:50.584Z,74.93
2018-03-17T14:12:18.063Z,75.67
2018-03-17T14:14:45.553Z,75.84
2018-03-17T14:17:13.070Z,76.22
2018-03-17T14:19:40.568Z,76.32
2018-03-17T14:22:08.118Z,75.84
2018-03-17T14:24:35.626Z,75.35
2018-03-17T14:27:03.162Z,74.50
2018-03-17T14:29:30.639Z,74.43
2018-03-17T14:31:58.120Z,73.47
2018-03-17T14:34:25.639Z,73.29
2018-03-17T14:36:53.118Z,73.41
2018-03-17T14:39:20.587Z,72.73
2018-03-17T14:41:48.112Z,75.01
2018-03-17T14:44:15.586Z,75.67
2018-03-17T14:46:43.132Z,74.05
2018-03-17T14:49:10.587Z,77.10
2018-03-17T14:51:38.156Z,73.77
2018-03-17T14:54:05.717Z,73.74
2018-03-17T14:56:33.144Z,73.92
2018-03-17T14:59:00.654Z,73.90
2018-03-17T15:01:28.097Z,74.57
2018-03-17T15:03:55.564Z,74.70
2018-03-17T15:06:23.146Z,74.61
2018-03-17T15:08:50.618Z,74.40
2018-03-17T15:11:18.130Z,74.72
2018-03-17T15:13:45.592Z,75.20
2018-03-17T15:16:13.052Z,74.62
2018-03-17T15:18:40.560Z,74.71
2018-03-17T15:21:08.254Z,74.63
2018-03-17T15:23:35.712Z,74.58
2018-03-17T15:26:14.860Z,74.52
2018-03-17T15:28:42.316Z,74.52
2018-03-17T15:31:09.860Z,74.03
2018-03-17T15:33:37.296Z,74.89
2018-03-17T15:36:04.800Z,74.86
2018-03-17T15:38:32.310Z,75.09
2018-03-17T15:40:59.771Z,74.58
2018-03-17T15:43:27.256Z,74.53
2018-03-17T15:46:04.395Z,74.55
2018-03-17T15:48:31.872Z,74.62
2018-03-17T15:50:59.365Z,74.74
2018-03-17T15:53:27.112Z,74.80
2018-03-17T15:55:54.628Z,74.24
2018-03-17T15:58:22.115Z,74.25
2018-03-17T16:00:49.607Z,73.83
2018-03-17T16:03:17.069Z,74.12
2018-03-17T16:05:45.448Z,73.80
2018-03-17T16:08:12.966Z,73.82
2018-03-17T16:10:40.424Z,73.32
2018-03-17T16:13:07.916Z,73.27
2018-03-17T16:15:35.464Z,72.85
2018-03-17T16:18:02.983Z,73.40
2018-03-17T16:20:30.477Z,73.21
2018-03-17T16:22:58.071Z,73.15
2018-03-17T16:25:30.547Z,73.35
2018-03-17T16:27:58.145Z,73.77
2018-03-17T16:30:25.842Z,73.75
2018-03-17T16:32:53.378Z,74.02
2018-03-17T16:35:20.858Z,74.56
2018-03-17T16:37:48.370Z,75.21
2018-03-17T16:40:15.849Z,74.18
2018-03-17T16:42:43.278Z,74.51
2018-03-17T16:45:24.990Z,74.11
2018-03-17T16:47:52.466Z,74.97
2018-03-17T16:50:19.943Z,74.65
2018-03-17T16:52:47.470Z,75.40
2018-03-17T16:55:14.950Z,75.23
2018-03-17T16:57:42.494Z,75.06
2018-03-17T17:00:09.964Z,74.97
2018-03-17T17:02:37.464Z,74.67
2018-03-17T17:05:04.964Z,74.96
2018-03-17T17:07:32.408Z,75.03
2018-03-17T17:09:59.867Z,75.16
2018-03-17T17:12:27.428Z,75.68
2018-03-17T17:14:54.998Z,74.88
2018-03-17T17:17:23.688Z,75.02
2018-03-17T17:19:51.140Z,74.63
2018-03-17T17:22:18.710Z,74.72
2018-03-17T17:24:46.168Z,74.21
2018-03-17T17:27:13.710Z,74.08
2018-03-17T17:29:41.182Z,74.02
2018-03-17T17:32:09.274Z,73.60
2018-03-17T17:34:36.795Z,73.88
2018-03-17T17:37:04.289Z,73.58
2018-03-17T17:39:31.790Z,73.37
2018-03-17T17:41:59.385Z,73.43
2018-03-17T17:44:27.062Z,73.04
2018-03-17T17:46:55.170Z,73.42
2018-03-17T17:49:22.639Z,73.43
2018-03-17T17:51:50.166Z,73.16
2018-03-17T17:54:17.628Z,73.07
2018-03-17T17:56:45.231Z,73.56
2018-03-17T17:59:12.733Z,73.70
2018-03-17T18:01:40.316Z,72.85
2018-03-17T18:04:08.640Z,73.06
2018-03-17T18:06:41.061Z,73.06
2018-03-17T18:09:08.791Z,72.62
2018-03-17T18:11:36.268Z,72.24
2018-03-17T18:14:03.743Z,72.34
2018-03-17T18:16:31.204Z,72.21
2018-03-17T18:18:58.695Z,72.47
2018-03-17T18:21:26.192Z,72.18
2018-03-17T18:23:53.712Z,72.44
2018-03-17T18:26:21.278Z,72.30
2018-03-17T18:28:48.824Z,71.97
2018-03-17T18:31:16.328Z,72.80
2018-03-17T18:33:43.888Z,72.61
2018-03-17T18:36:11.455Z,72.81
2018-03-17T18:38:39.155Z,72.67
2018-03-17T18:41:06.634Z,72.26
2018-03-17T18:43:34.938Z,72.34
2018-03-17T18:46:02.950Z,72.55
2018-03-17T18:48:30.532Z,72.28
2018-03-17T18:50:58.165Z,72.41
2018-03-17T18:53:25.933Z,73.46
2018-03-17T18:55:53.499Z,72.96
2018-03-17T18:58:21.038Z,73.01
2018-03-17T19:00:48.681Z,73.08
2018-03-17T19:03:16.202Z,72.96
2018-03-17T19:05:43.682Z,73.16
2018-03-17T19:08:11.146Z,73.09
2018-03-17T19:10:38.694Z,73.20
2018-03-17T19:13:07.822Z,73.05
2018-03-17T19:15:44.983Z,73.74
2018-03-17T19:18:12.546Z,72.97
2018-03-17T19:20:40.038Z,73.06
2018-03-17T19:23:08.006Z,73.01
2018-03-17T19:25:35.594Z,72.83
2018-03-17T19:28:03.051Z,72.62
2018-03-17T19:30:30.556Z,72.41
2018-03-17T19:32:58.142Z,72.32
2018-03-17T19:35:25.696Z,72.66
2018-03-17T19:37:53.517Z,72.37
2018-03-17T19:40:21.042Z,71.55
2018-03-17T19:42:48.549Z,71.57
2018-03-17T19:45:16.287Z,72.04
2018-03-17T19:47:43.801Z,71.90
2018-03-17T19:50:11.590Z,71.93
2018-03-17T19:52:39.151Z,71.22
2018-03-17T19:55:06.640Z,71.35
2018-03-17T19:57:34.135Z,71.53
2018-03-17T20:00:01.713Z,71.37
2018-03-17T20:02:29.280Z,71.14
2018-03-17T20:04:56.885Z,70.68
2018-03-17T20:07:24.431Z,70.40
2018-03-17T20:09:52.422Z,70.44
2018-03-17T20:12:19.967Z,69.89
2018-03-17T20:14:47.667Z,70.39
2018-03-17T20:17:15.179Z,70.69
2018-03-17T20:19:42.729Z,70.50
2018-03-17T20:22:10.264Z,70.29
2018-03-17T20:24:48.287Z,70.51
2018-03-17T20:27:15.791Z,70.42
2018-03-17T20:29:44.218Z,70.65
2018-03-17T20:32:11.975Z,70.93
2018-03-17T20:34:39.471Z,70.18
2018-03-17T20:37:06.993Z,69.97
2018-03-17T20:39:34.611Z,69.77
2018-03-17T20:42:02.193Z,68.68
2018-03-17T20:44:29.837Z,68.92
2018-03-17T20:46:57.389Z,69.00
2018-03-17T20:49:24.969Z,69.08
2018-03-17T20:51:52.523Z,68.98
2018-03-17T20:54:20.014Z,68.36
2018-03-17T20:56:47.572Z,69.00
2018-03-17T20:59:15.058Z,69.13
2018-03-17T21:01:42.927Z,68.16
2018-03-17T21:04:10.682Z,67.71
2018-03-17T21:06:44.225Z,68.45
2018-03-17T21:09:11.749Z,68.41
2018-03-17T21:11:39.236Z,68.47
2018-03-17T21:14:07.195Z,68.83
2018-03-17T21:16:35.054Z,68.79
2018-03-17T21:19:02.614Z,68.75
2018-03-17T21:21:30.125Z,68.12
2018-03-17T21:23:57.899Z,67.69
2018-03-17T21:26:25.497Z,68.03
2018-03-17T21:28:53.039Z,67.79
2018-03-17T21:31:20.611Z,67.34
2018-03-17T21:33:48.239Z,67.08
2018-03-17T21:36:15.744Z,66.99
2018-03-17T21:38:44.897Z,67.21
2018-03-17T21:41:12.437Z,67.14
2018-03-17T21:43:39.918Z,67.32
2018-03-17T21:46:07.415Z,67.19
2018-03-17T21:48:34.903Z,66.94
2018-03-17T21:51:02.421Z,66.49
2018-03-17T21:53:29.937Z,65.48
2018-03-17T21:55:57.431Z,65.11
2018-03-17T21:58:25.006Z,65.11
2018-03-17T22:00:52.607Z,65.12
2018-03-17T22:03:20.161Z,65.29
2018-03-17T22:05:47.701Z,65.19
2018-03-17T22:08:15.235Z,65.45
2018-03-17T22:10:42.775Z,64.46
2018-03-17T22:13:10.242Z,64.84
2018-03-17T22:15:37.711Z,64.41
2018-03-17T22:18:05.244Z,64.17
2018-03-17T22:20:32.781Z,64.09
2018-03-17T22:23:00.387Z,63.99
2018-03-17T22:25:28.043Z,63.94
2018-03-17T22:27:55.550Z,63.68
2018-03-17T22:30:23.059Z,63.52
2018-03-17T22:32:50.636Z,63.73
2018-03-17T22:35:18.144Z,64.13
2018-03-17T22:37:45.744Z,63.40
2018-03-17T22:40:13.443Z,63.29
2018-03-17T22:42:41.124Z,63.95
2018-03-17T22:45:08.601Z,63.83
2018-03-17T22:47:36.308Z,64.28
2018-03-17T22:50:03.887Z,63.28
2018-03-17T22:52:31.734Z,63.29
2018-03-17T22:54:59.250Z,63.21
2018-03-17T22:57:26.856Z,63.54
2018-03-17T22:59:54.329Z,63.38
2018-03-17T23:02:21.867Z,63.25
2018-03-17T23:04:49.407Z,62.99
2018-03-17T23:07:16.914Z,62.84
2018-03-17T23:09:44.537Z,62.95
2018-03-17T23:12:12.056Z,62.25
2018-03-17T23:14:39.631Z,62.71
2018-03-17T23:17:07.168Z,61.82
2018-03-17T23:19:34.688Z,61.83
2018-03-17T23:22:02.263Z,62.38
2018-03-17T23:24:29.776Z,62.40
2018-03-17T23:26:57.370Z,62.80
2018-03-17T23:29:24.922Z,62.59
2018-03-17T23:31:52.659Z,62.67
2018-03-17T23:34:20.132Z,61.78
2018-03-17T23:36:47.694Z,63.11
2018-03-17T23:39:16.176Z,61.74
2018-03-17T23:41:43.644Z,61.72
2018-03-17T23:44:11.134Z,62.31
2018-03-17T23:46:38.648Z,61.78
2018-03-17T23:49:06.376Z,61.91
2018-03-17T23:51:34.730Z,62.24
2018-03-17T23:54:02.752Z,61.21
2018-03-17T23:56:30.292Z,61.51
2018-03-17T23:58:57.820Z,61.70
